sensor_id;sensor_type;location;lat;lon;timestamp;P1;durP1;ratioP1;P2;durP2;ratioP2
28547;SDS011;68292;49.600;8.746;2023-07-31T00:01:12;4.03;;;2.00;;
28547;SDS011;68292;49.600;8.746;2023-07-31T00:03:41;2.65;;;1.83;;
28547;SDS011;68292;49.600;8.746;2023-07-31T00:06:10;3.00;;;1.73;;
28547;SDS011;68292;49.600;8.746;2023-07-31T00:08:38;4.22;;;1.73;;
28547;SDS011;68292;49.600;8.746;2023-07-31T00:11:06;2.50;;;1.92;;
28547;SDS011;68292;49.600;8.746;2023-07-31T00:13:34;4.93;;;1.90;;
28547;SDS011;68292;49.600;8.746;2023-07-31T00:16:02;2.35;;;1.58;;
28547;SDS011;68292;49.600;8.746;2023-07-31T00:18:31;3.42;;;2.35;;
28547;SDS011;68292;49.600;8.746;2023-07-31T00:21:00;3.35;;;2.13;;
28547;SDS011;68292;49.600;8.746;2023-07-31T00:23:28;3.40;;;2.00;;
28547;SDS011;68292;49.600;8.746;2023-07-31T00:25:56;3.35;;;1.63;;
28547;SDS011;68292;49.600;8.746;2023-07-31T00:28:24;7.18;;;2.30;;
28547;SDS011;68292;49.600;8.746;2023-07-31T00:30:53;4.65;;;1.90;;
28547;SDS011;68292;49.600;8.746;2023-07-31T00:33:25;2.38;;;1.70;;
28547;SDS011;68292;49.600;8.746;2023-07-31T00:35:53;2.45;;;1.77;;
28547;SDS011;68292;49.600;8.746;2023-07-31T00:38:22;3.38;;;2.00;;
28547;SDS011;68292;49.600;8.746;2023-07-31T00:40:50;5.95;;;2.00;;
28547;SDS011;68292;49.600;8.746;2023-07-31T00:43:19;3.90;;;2.42;;
28547;SDS011;68292;49.600;8.746;2023-07-31T00:45:47;4.85;;;2.05;;
28547;SDS011;68292;49.600;8.746;2023-07-31T00:48:15;2.75;;;2.00;;
28547;SDS011;68292;49.600;8.746;2023-07-31T00:50:43;4.03;;;2.10;;
28547;SDS011;68292;49.600;8.746;2023-07-31T00:53:11;3.97;;;2.10;;
28547;SDS011;68292;49.600;8.746;2023-07-31T00:55:41;4.50;;;1.75;;
28547;SDS011;68292;49.600;8.746;2023-07-31T00:58:11;3.45;;;2.10;;
28547;SDS011;68292;49.600;8.746;2023-07-31T01:00:39;4.55;;;2.00;;
28547;SDS011;68292;49.600;8.746;2023-07-31T01:03:07;3.45;;;2.10;;
28547;SDS011;68292;49.600;8.746;2023-07-31T01:05:36;3.63;;;2.20;;
28547;SDS011;68292;49.600;8.746;2023-07-31T01:08:18;2.40;;;1.90;;
28547;SDS011;68292;49.600;8.746;2023-07-31T01:10:59;5.25;;;2.30;;
28547;SDS011;68292;49.600;8.746;2023-07-31T01:13:34;2.65;;;1.95;;
28547;SDS011;68292;49.600;8.746;2023-07-31T01:16:03;2.03;;;1.80;;
28547;SDS011;68292;49.600;8.746;2023-07-31T01:18:31;4.10;;;2.10;;
28547;SDS011;68292;49.600;8.746;2023-07-31T01:21:03;3.22;;;2.10;;
28547;SDS011;68292;49.600;8.746;2023-07-31T01:23:57;3.25;;;1.98;;
28547;SDS011;68292;49.600;8.746;2023-07-31T01:26:51;3.22;;;1.98;;
28547;SDS011;68292;49.600;8.746;2023-07-31T01:29:26;4.47;;;2.45;;
28547;SDS011;68292;49.600;8.746;2023-07-31T01:32:02;2.53;;;2.28;;
28547;SDS011;68292;49.600;8.746;2023-07-31T01:34:32;3.53;;;1.83;;
28547;SDS011;68292;49.600;8.746;2023-07-31T01:37:02;3.25;;;2.03;;
28547;SDS011;68292;49.600;8.746;2023-07-31T01:39:31;3.88;;;2.03;;
28547;SDS011;68292;49.600;8.746;2023-07-31T01:42:00;2.10;;;1.90;;
28547;SDS011;68292;49.600;8.746;2023-07-31T01:44:28;5.05;;;2.25;;
28547;SDS011;68292;49.600;8.746;2023-07-31T01:46:57;4.22;;;2.42;;
28547;SDS011;68292;49.600;8.746;2023-07-31T01:49:26;2.10;;;1.90;;
28547;SDS011;68292;49.600;8.746;2023-07-31T01:51:54;4.00;;;2.05;;
28547;SDS011;68292;49.600;8.746;2023-07-31T01:54:22;3.92;;;2.30;;
28547;SDS011;68292;49.600;8.746;2023-07-31T01:56:50;4.70;;;2.50;;
28547;SDS011;68292;49.600;8.746;2023-07-31T01:59:20;3.15;;;2.15;;
28547;SDS011;68292;49.600;8.746;2023-07-31T02:01:48;3.38;;;2.28;;
28547;SDS011;68292;49.600;8.746;2023-07-31T02:04:19;4.72;;;2.15;;
28547;SDS011;68292;49.600;8.746;2023-07-31T02:06:48;5.90;;;2.30;;
28547;SDS011;68292;49.600;8.746;2023-07-31T02:09:16;4.22;;;2.40;;
28547;SDS011;68292;49.600;8.746;2023-07-31T02:11:44;3.25;;;2.47;;
28547;SDS011;68292;49.600;8.746;2023-07-31T02:14:12;2.58;;;2.03;;
28547;SDS011;68292;49.600;8.746;2023-07-31T02:16:41;3.65;;;2.13;;
28547;SDS011;68292;49.600;8.746;2023-07-31T02:19:10;2.95;;;2.00;;
28547;SDS011;68292;49.600;8.746;2023-07-31T02:21:38;3.75;;;2.10;;
28547;SDS011;68292;49.600;8.746;2023-07-31T02:24:06;5.60;;;2.67;;
28547;SDS011;68292;49.600;8.746;2023-07-31T02:26:34;3.00;;;2.30;;
28547;SDS011;68292;49.600;8.746;2023-07-31T02:29:03;3.40;;;2.20;;
28547;SDS011;68292;49.600;8.746;2023-07-31T02:31:31;3.05;;;2.20;;
28547;SDS011;68292;49.600;8.746;2023-07-31T02:34:00;4.85;;;2.40;;
28547;SDS011;68292;49.600;8.746;2023-07-31T02:36:28;5.00;;;2.63;;
28547;SDS011;68292;49.600;8.746;2023-07-31T02:38:56;2.92;;;2.10;;
28547;SDS011;68292;49.600;8.746;2023-07-31T02:41:25;4.13;;;2.40;;
28547;SDS011;68292;49.600;8.746;2023-07-31T02:43:53;2.53;;;2.15;;
28547;SDS011;68292;49.600;8.746;2023-07-31T02:46:21;4.85;;;2.13;;
28547;SDS011;68292;49.600;8.746;2023-07-31T02:48:51;4.68;;;2.55;;
28547;SDS011;68292;49.600;8.746;2023-07-31T02:51:20;4.47;;;2.25;;
28547;SDS011;68292;49.600;8.746;2023-07-31T02:53:48;5.38;;;2.42;;
28547;SDS011;68292;49.600;8.746;2023-07-31T02:56:17;4.97;;;2.30;;
28547;SDS011;68292;49.600;8.746;2023-07-31T02:58:45;2.53;;;2.30;;
28547;SDS011;68292;49.600;8.746;2023-07-31T03:01:13;3.22;;;2.42;;
28547;SDS011;68292;49.600;8.746;2023-07-31T03:03:43;2.97;;;2.45;;
28547;SDS011;68292;49.600;8.746;2023-07-31T03:06:11;2.75;;;2.00;;
28547;SDS011;68292;49.600;8.746;2023-07-31T03:08:41;2.97;;;2.08;;
28547;SDS011;68292;49.600;8.746;2023-07-31T03:11:09;6.78;;;2.15;;
28547;SDS011;68292;49.600;8.746;2023-07-31T03:13:37;4.10;;;2.28;;
28547;SDS011;68292;49.600;8.746;2023-07-31T03:16:05;6.72;;;2.13;;
28547;SDS011;68292;49.600;8.746;2023-07-31T03:18:33;2.70;;;2.40;;
28547;SDS011;68292;49.600;8.746;2023-07-31T03:21:01;5.85;;;2.40;;
28547;SDS011;68292;49.600;8.746;2023-07-31T03:23:29;3.58;;;2.30;;
28547;SDS011;68292;49.600;8.746;2023-07-31T03:25:59;3.88;;;2.38;;
28547;SDS011;68292;49.600;8.746;2023-07-31T03:28:30;3.88;;;2.33;;
28547;SDS011;68292;49.600;8.746;2023-07-31T03:30:58;4.20;;;2.60;;
28547;SDS011;68292;49.600;8.746;2023-07-31T03:33:26;4.53;;;1.98;;
28547;SDS011;68292;49.600;8.746;2023-07-31T03:35:55;3.03;;;1.95;;
28547;SDS011;68292;49.600;8.746;2023-07-31T03:38:23;2.67;;;2.20;;
28547;SDS011;68292;49.600;8.746;2023-07-31T03:40:52;5.60;;;2.40;;
28547;SDS011;68292;49.600;8.746;2023-07-31T03:43:22;3.10;;;2.15;;
28547;SDS011;68292;49.600;8.746;2023-07-31T03:45:51;4.00;;;2.50;;
28547;SDS011;68292;49.600;8.746;2023-07-31T03:48:19;2.28;;;2.08;;
28547;SDS011;68292;49.600;8.746;2023-07-31T03:50:48;2.63;;;1.80;;
28547;SDS011;68292;49.600;8.746;2023-07-31T03:53:16;3.00;;;2.15;;
28547;SDS011;68292;49.600;8.746;2023-07-31T03:55:44;3.65;;;2.53;;
28547;SDS011;68292;49.600;8.746;2023-07-31T03:58:13;2.35;;;2.03;;
28547;SDS011;68292;49.600;8.746;2023-07-31T04:00:42;5.32;;;2.22;;
28547;SDS011;68292;49.600;8.746;2023-07-31T04:03:10;3.33;;;2.40;;
28547;SDS011;68292;49.600;8.746;2023-07-31T04:05:38;2.60;;;2.33;;
28547;SDS011;68292;49.600;8.746;2023-07-31T04:08:07;5.88;;;2.50;;
28547;SDS011;68292;49.600;8.746;2023-07-31T04:10:35;3.40;;;2.35;;
28547;SDS011;68292;49.600;8.746;2023-07-31T04:13:03;2.75;;;1.92;;
28547;SDS011;68292;49.600;8.746;2023-07-31T04:15:31;3.28;;;2.45;;
28547;SDS011;68292;49.600;8.746;2023-07-31T04:18:00;3.03;;;2.15;;
28547;SDS011;68292;49.600;8.746;2023-07-31T04:20:28;4.15;;;2.85;;
28547;SDS011;68292;49.600;8.746;2023-07-31T04:22:56;4.32;;;2.50;;
28547;SDS011;68292;49.600;8.746;2023-07-31T04:25:25;3.25;;;2.05;;
28547;SDS011;68292;49.600;8.746;2023-07-31T04:27:53;3.67;;;2.35;;
28547;SDS011;68292;49.600;8.746;2023-07-31T04:30:21;2.63;;;1.95;;
28547;SDS011;68292;49.600;8.746;2023-07-31T04:32:49;4.25;;;2.20;;
28547;SDS011;68292;49.600;8.746;2023-07-31T04:35:19;4.53;;;2.35;;
28547;SDS011;68292;49.600;8.746;2023-07-31T04:37:47;5.65;;;2.30;;
28547;SDS011;68292;49.600;8.746;2023-07-31T04:40:15;4.32;;;2.47;;
28547;SDS011;68292;49.600;8.746;2023-07-31T04:42:43;4.80;;;2.67;;
28547;SDS011;68292;49.600;8.746;2023-07-31T04:45:12;3.10;;;2.17;;
28547;SDS011;68292;49.600;8.746;2023-07-31T04:47:41;3.75;;;2.40;;
28547;SDS011;68292;49.600;8.746;2023-07-31T04:50:09;4.18;;;2.55;;
28547;SDS011;68292;49.600;8.746;2023-07-31T04:52:39;3.40;;;2.30;;
28547;SDS011;68292;49.600;8.746;2023-07-31T04:55:07;2.42;;;2.20;;
28547;SDS011;68292;49.600;8.746;2023-07-31T04:57:36;2.67;;;2.35;;
28547;SDS011;68292;49.600;8.746;2023-07-31T05:00:04;5.05;;;2.55;;
28547;SDS011;68292;49.600;8.746;2023-07-31T05:02:34;5.55;;;2.17;;
28547;SDS011;68292;49.600;8.746;2023-07-31T05:05:02;3.00;;;2.40;;
28547;SDS011;68292;49.600;8.746;2023-07-31T05:07:31;2.75;;;2.33;;
28547;SDS011;68292;49.600;8.746;2023-07-31T05:10:00;3.38;;;2.10;;
28547;SDS011;68292;49.600;8.746;2023-07-31T05:12:29;5.65;;;2.58;;
28547;SDS011;68292;49.600;8.746;2023-07-31T05:14:57;3.75;;;2.53;;
28547;SDS011;68292;49.600;8.746;2023-07-31T05:17:25;4.13;;;2.70;;
28547;SDS011;68292;49.600;8.746;2023-07-31T05:19:53;5.50;;;2.45;;
28547;SDS011;68292;49.600;8.746;2023-07-31T05:22:21;3.03;;;2.22;;
28547;SDS011;68292;49.600;8.746;2023-07-31T05:24:49;2.88;;;2.20;;
28547;SDS011;68292;49.600;8.746;2023-07-31T05:27:18;3.72;;;2.25;;
28547;SDS011;68292;49.600;8.746;2023-07-31T05:29:46;4.47;;;2.38;;
28547;SDS011;68292;49.600;8.746;2023-07-31T05:32:14;3.40;;;2.22;;
28547;SDS011;68292;49.600;8.746;2023-07-31T05:34:43;3.15;;;2.33;;
28547;SDS011;68292;49.600;8.746;2023-07-31T05:37:11;4.47;;;2.38;;
28547;SDS011;68292;49.600;8.746;2023-07-31T05:39:39;6.50;;;2.63;;
28547;SDS011;68292;49.600;8.746;2023-07-31T05:42:07;3.55;;;2.60;;
28547;SDS011;68292;49.600;8.746;2023-07-31T05:44:36;2.95;;;2.03;;
28547;SDS011;68292;49.600;8.746;2023-07-31T05:47:04;4.63;;;2.45;;
28547;SDS011;68292;49.600;8.746;2023-07-31T05:49:33;3.15;;;2.40;;
28547;SDS011;68292;49.600;8.746;2023-07-31T05:52:02;3.50;;;2.30;;
28547;SDS011;68292;49.600;8.746;2023-07-31T05:54:31;4.40;;;2.30;;
28547;SDS011;68292;49.600;8.746;2023-07-31T05:57:00;3.33;;;1.80;;
28547;SDS011;68292;49.600;8.746;2023-07-31T05:59:28;3.92;;;2.28;;
28547;SDS011;68292;49.600;8.746;2023-07-31T06:02:00;4.68;;;2.50;;
28547;SDS011;68292;49.600;8.746;2023-07-31T06:04:28;4.78;;;2.25;;
28547;SDS011;68292;49.600;8.746;2023-07-31T06:06:56;2.47;;;2.28;;
28547;SDS011;68292;49.600;8.746;2023-07-31T06:09:24;3.05;;;2.25;;
28547;SDS011;68292;49.600;8.746;2023-07-31T06:11:53;6.05;;;2.55;;
28547;SDS011;68292;49.600;8.746;2023-07-31T06:14:21;3.45;;;2.22;;
28547;SDS011;68292;49.600;8.746;2023-07-31T06:16:49;3.67;;;2.25;;
28547;SDS011;68292;49.600;8.746;2023-07-31T06:19:18;4.38;;;2.53;;
28547;SDS011;68292;49.600;8.746;2023-07-31T06:21:47;4.97;;;2.60;;
28547;SDS011;68292;49.600;8.746;2023-07-31T06:24:15;3.67;;;2.47;;
28547;SDS011;68292;49.600;8.746;2023-07-31T06:26:46;2.38;;;2.17;;
28547;SDS011;68292;49.600;8.746;2023-07-31T06:29:14;3.00;;;2.50;;
28547;SDS011;68292;49.600;8.746;2023-07-31T06:31:42;5.38;;;2.80;;
28547;SDS011;68292;49.600;8.746;2023-07-31T06:34:11;4.70;;;2.50;;
28547;SDS011;68292;49.600;8.746;2023-07-31T06:36:40;2.70;;;2.33;;
28547;SDS011;68292;49.600;8.746;2023-07-31T06:39:08;3.92;;;2.70;;
28547;SDS011;68292;49.600;8.746;2023-07-31T06:41:36;3.90;;;2.58;;
28547;SDS011;68292;49.600;8.746;2023-07-31T06:44:09;3.17;;;2.60;;
28547;SDS011;68292;49.600;8.746;2023-07-31T06:46:37;3.40;;;2.90;;
28547;SDS011;68292;49.600;8.746;2023-07-31T06:49:06;3.28;;;2.45;;
28547;SDS011;68292;49.600;8.746;2023-07-31T06:51:34;3.30;;;2.47;;
28547;SDS011;68292;49.600;8.746;2023-07-31T06:54:06;2.90;;;2.63;;
28547;SDS011;68292;49.600;8.746;2023-07-31T06:56:36;3.65;;;2.90;;
28547;SDS011;68292;49.600;8.746;2023-07-31T06:59:06;3.00;;;2.45;;
28547;SDS011;68292;49.600;8.746;2023-07-31T07:01:34;4.45;;;2.25;;
28547;SDS011;68292;49.600;8.746;2023-07-31T07:04:03;3.25;;;2.60;;
28547;SDS011;68292;49.600;8.746;2023-07-31T07:06:31;3.35;;;2.72;;
28547;SDS011;68292;49.600;8.746;2023-07-31T07:08:59;7.20;;;2.50;;
28547;SDS011;68292;49.600;8.746;2023-07-31T07:11:28;3.15;;;2.15;;
28547;SDS011;68292;49.600;8.746;2023-07-31T07:13:56;4.90;;;2.78;;
28547;SDS011;68292;49.600;8.746;2023-07-31T07:16:25;5.22;;;2.15;;
28547;SDS011;68292;49.600;8.746;2023-07-31T07:18:53;4.07;;;2.42;;
28547;SDS011;68292;49.600;8.746;2023-07-31T07:21:30;2.97;;;2.55;;
28547;SDS011;68292;49.600;8.746;2023-07-31T07:23:58;6.03;;;2.38;;
28547;SDS011;68292;49.600;8.746;2023-07-31T07:26:26;4.13;;;2.45;;
28547;SDS011;68292;49.600;8.746;2023-07-31T07:28:55;5.38;;;2.38;;
28547;SDS011;68292;49.600;8.746;2023-07-31T07:31:26;6.10;;;3.42;;
28547;SDS011;68292;49.600;8.746;2023-07-31T07:33:54;4.35;;;2.60;;
28547;SDS011;68292;49.600;8.746;2023-07-31T07:36:23;2.97;;;2.15;;
28547;SDS011;68292;49.600;8.746;2023-07-31T07:38:51;2.30;;;2.05;;
28547;SDS011;68292;49.600;8.746;2023-07-31T07:41:19;3.25;;;2.55;;
28547;SDS011;68292;49.600;8.746;2023-07-31T07:43:47;2.88;;;2.58;;
28547;SDS011;68292;49.600;8.746;2023-07-31T07:46:16;5.82;;;2.60;;
28547;SDS011;68292;49.600;8.746;2023-07-31T07:48:45;3.78;;;2.28;;
28547;SDS011;68292;49.600;8.746;2023-07-31T07:51:13;2.35;;;2.15;;
28547;SDS011;68292;49.600;8.746;2023-07-31T07:53:41;4.05;;;2.63;;
28547;SDS011;68292;49.600;8.746;2023-07-31T07:56:09;4.68;;;2.70;;
28547;SDS011;68292;49.600;8.746;2023-07-31T07:58:37;3.38;;;2.25;;
28547;SDS011;68292;49.600;8.746;2023-07-31T08:01:05;3.13;;;2.80;;
28547;SDS011;68292;49.600;8.746;2023-07-31T08:03:34;3.78;;;2.85;;
28547;SDS011;68292;49.600;8.746;2023-07-31T08:06:03;5.25;;;2.15;;
28547;SDS011;68292;49.600;8.746;2023-07-31T08:08:31;5.50;;;2.50;;
28547;SDS011;68292;49.600;8.746;2023-07-31T08:10:59;3.55;;;2.15;;
28547;SDS011;68292;49.600;8.746;2023-07-31T08:13:27;3.70;;;2.35;;
28547;SDS011;68292;49.600;8.746;2023-07-31T08:15:55;4.45;;;2.35;;
28547;SDS011;68292;49.600;8.746;2023-07-31T08:18:23;3.55;;;2.13;;
28547;SDS011;68292;49.600;8.746;2023-07-31T08:20:53;4.13;;;2.70;;
28547;SDS011;68292;49.600;8.746;2023-07-31T08:23:21;3.05;;;2.30;;
28547;SDS011;68292;49.600;8.746;2023-07-31T08:25:49;3.90;;;2.72;;
28547;SDS011;68292;49.600;8.746;2023-07-31T08:28:17;3.83;;;2.25;;
28547;SDS011;68292;49.600;8.746;2023-07-31T08:30:46;4.10;;;2.33;;
28547;SDS011;68292;49.600;8.746;2023-07-31T08:33:14;4.60;;;2.40;;
28547;SDS011;68292;49.600;8.746;2023-07-31T08:35:42;3.83;;;2.53;;
28547;SDS011;68292;49.600;8.746;2023-07-31T08:38:11;4.03;;;2.47;;
28547;SDS011;68292;49.600;8.746;2023-07-31T08:40:40;3.33;;;2.55;;
28547;SDS011;68292;49.600;8.746;2023-07-31T08:43:08;4.80;;;2.83;;
28547;SDS011;68292;49.600;8.746;2023-07-31T08:45:36;5.35;;;2.80;;
28547;SDS011;68292;49.600;8.746;2023-07-31T08:48:06;5.13;;;2.72;;
28547;SDS011;68292;49.600;8.746;2023-07-31T08:50:34;3.05;;;2.60;;
28547;SDS011;68292;49.600;8.746;2023-07-31T08:53:02;4.55;;;2.92;;
28547;SDS011;68292;49.600;8.746;2023-07-31T08:55:32;7.03;;;2.92;;
28547;SDS011;68292;49.600;8.746;2023-07-31T08:58:01;8.57;;;3.13;;
28547;SDS011;68292;49.600;8.746;2023-07-31T09:00:31;4.13;;;2.53;;
28547;SDS011;68292;49.600;8.746;2023-07-31T09:03:02;3.88;;;3.10;;
28547;SDS011;68292;49.600;8.746;2023-07-31T09:05:36;4.07;;;2.53;;
28547;SDS011;68292;49.600;8.746;2023-07-31T09:08:06;2.58;;;2.22;;
28547;SDS011;68292;49.600;8.746;2023-07-31T09:10:41;5.80;;;2.80;;
28547;SDS011;68292;49.600;8.746;2023-07-31T09:13:09;4.68;;;2.40;;
28547;SDS011;68292;49.600;8.746;2023-07-31T09:15:39;5.55;;;2.72;;
28547;SDS011;68292;49.600;8.746;2023-07-31T09:18:08;5.63;;;2.65;;
28547;SDS011;68292;49.600;8.746;2023-07-31T09:20:36;3.45;;;2.45;;
28547;SDS011;68292;49.600;8.746;2023-07-31T09:23:05;3.13;;;2.50;;
28547;SDS011;68292;49.600;8.746;2023-07-31T09:25:35;3.40;;;2.67;;
28547;SDS011;68292;49.600;8.746;2023-07-31T09:28:06;3.08;;;2.65;;
28547;SDS011;68292;49.600;8.746;2023-07-31T09:30:44;3.17;;;2.50;;
28547;SDS011;68292;49.600;8.746;2023-07-31T09:33:14;4.53;;;2.55;;
28547;SDS011;68292;49.600;8.746;2023-07-31T09:35:43;4.30;;;2.90;;
28547;SDS011;68292;49.600;8.746;2023-07-31T09:38:12;4.78;;;2.40;;
28547;SDS011;68292;49.600;8.746;2023-07-31T09:40:42;3.88;;;3.35;;
28547;SDS011;68292;49.600;8.746;2023-07-31T09:43:17;5.22;;;2.58;;
28547;SDS011;68292;49.600;8.746;2023-07-31T09:45:47;5.18;;;2.50;;
28547;SDS011;68292;49.600;8.746;2023-07-31T09:48:16;5.50;;;3.25;;
28547;SDS011;68292;49.600;8.746;2023-07-31T09:50:46;6.63;;;3.10;;
28547;SDS011;68292;49.600;8.746;2023-07-31T09:53:16;2.85;;;2.45;;
28547;SDS011;68292;49.600;8.746;2023-07-31T09:55:44;6.32;;;3.03;;
28547;SDS011;68292;49.600;8.746;2023-07-31T09:58:14;4.38;;;2.63;;
28547;SDS011;68292;49.600;8.746;2023-07-31T10:00:42;3.58;;;2.60;;
28547;SDS011;68292;49.600;8.746;2023-07-31T10:03:10;3.63;;;3.15;;
28547;SDS011;68292;49.600;8.746;2023-07-31T10:05:41;3.78;;;2.92;;
28547;SDS011;68292;49.600;8.746;2023-07-31T10:08:14;2.97;;;2.50;;
28547;SDS011;68292;49.600;8.746;2023-07-31T10:10:45;6.72;;;3.10;;
28547;SDS011;68292;49.600;8.746;2023-07-31T10:13:14;5.20;;;2.72;;
28547;SDS011;68292;49.600;8.746;2023-07-31T10:15:44;3.38;;;2.50;;
28547;SDS011;68292;49.600;8.746;2023-07-31T10:18:13;3.15;;;2.78;;
28547;SDS011;68292;49.600;8.746;2023-07-31T10:20:42;4.22;;;2.95;;
28547;SDS011;68292;49.600;8.746;2023-07-31T10:23:10;3.45;;;3.10;;
28547;SDS011;68292;49.600;8.746;2023-07-31T10:25:39;3.90;;;2.70;;
28547;SDS011;68292;49.600;8.746;2023-07-31T10:28:08;3.47;;;2.63;;
28547;SDS011;68292;49.600;8.746;2023-07-31T10:30:40;6.82;;;3.50;;
28547;SDS011;68292;49.600;8.746;2023-07-31T10:33:09;4.30;;;2.90;;
28547;SDS011;68292;49.600;8.746;2023-07-31T10:35:37;4.90;;;3.05;;
28547;SDS011;68292;49.600;8.746;2023-07-31T10:38:09;3.35;;;2.90;;
28547;SDS011;68292;49.600;8.746;2023-07-31T10:40:39;4.63;;;2.78;;
28547;SDS011;68292;49.600;8.746;2023-07-31T10:43:07;3.88;;;3.00;;
28547;SDS011;68292;49.600;8.746;2023-07-31T10:45:38;4.80;;;2.97;;
28547;SDS011;68292;49.600;8.746;2023-07-31T10:48:12;6.45;;;3.47;;
28547;SDS011;68292;49.600;8.746;2023-07-31T10:50:46;6.60;;;3.28;;
28547;SDS011;68292;49.600;8.746;2023-07-31T10:53:22;4.07;;;3.03;;
28547;SDS011;68292;49.600;8.746;2023-07-31T10:55:52;4.45;;;3.20;;
28547;SDS011;68292;49.600;8.746;2023-07-31T10:58:20;4.95;;;3.20;;
28547;SDS011;68292;49.600;8.746;2023-07-31T11:00:54;3.78;;;3.17;;
28547;SDS011;68292;49.600;8.746;2023-07-31T11:03:25;3.63;;;2.97;;
28547;SDS011;68292;49.600;8.746;2023-07-31T11:06:00;4.20;;;3.47;;
28547;SDS011;68292;49.600;8.746;2023-07-31T11:08:31;7.55;;;3.40;;
28547;SDS011;68292;49.600;8.746;2023-07-31T11:11:07;2.97;;;2.67;;
28547;SDS011;68292;49.600;8.746;2023-07-31T11:13:39;5.78;;;3.42;;
28547;SDS011;68292;49.600;8.746;2023-07-31T11:16:12;5.55;;;3.05;;
28547;SDS011;68292;49.600;8.746;2023-07-31T11:18:41;4.07;;;2.92;;
28547;SDS011;68292;49.600;8.746;2023-07-31T11:21:13;3.28;;;2.90;;
28547;SDS011;68292;49.600;8.746;2023-07-31T11:23:45;3.28;;;2.97;;
28547;SDS011;68292;49.600;8.746;2023-07-31T11:26:14;4.30;;;2.50;;
28547;SDS011;68292;49.600;8.746;2023-07-31T11:28:42;3.50;;;2.83;;
28547;SDS011;68292;49.600;8.746;2023-07-31T11:31:15;3.85;;;3.03;;
28547;SDS011;68292;49.600;8.746;2023-07-31T11:33:45;6.45;;;3.40;;
28547;SDS011;68292;49.600;8.746;2023-07-31T11:36:16;4.72;;;3.42;;
28547;SDS011;68292;49.600;8.746;2023-07-31T11:38:46;5.75;;;3.42;;
28547;SDS011;68292;49.600;8.746;2023-07-31T11:41:15;3.85;;;3.15;;
28547;SDS011;68292;49.600;8.746;2023-07-31T11:43:45;4.15;;;3.22;;
28547;SDS011;68292;49.600;8.746;2023-07-31T11:46:17;4.45;;;3.50;;
28547;SDS011;68292;49.600;8.746;2023-07-31T11:48:46;6.75;;;3.63;;
28547;SDS011;68292;49.600;8.746;2023-07-31T11:51:17;4.72;;;3.28;;
28547;SDS011;68292;49.600;8.746;2023-07-31T11:53:49;3.83;;;2.72;;
28547;SDS011;68292;49.600;8.746;2023-07-31T11:56:21;4.40;;;3.15;;
28547;SDS011;68292;49.600;8.746;2023-07-31T11:58:50;5.10;;;3.70;;
28547;SDS011;68292;49.600;8.746;2023-07-31T12:01:22;4.35;;;3.17;;
28547;SDS011;68292;49.600;8.746;2023-07-31T12:03:51;4.95;;;3.13;;
28547;SDS011;68292;49.600;8.746;2023-07-31T12:06:20;4.70;;;3.08;;
28547;SDS011;68292;49.600;8.746;2023-07-31T12:08:48;6.63;;;3.53;;
28547;SDS011;68292;49.600;8.746;2023-07-31T12:11:16;3.08;;;2.63;;
28547;SDS011;68292;49.600;8.746;2023-07-31T12:13:45;4.70;;;3.03;;
28547;SDS011;68292;49.600;8.746;2023-07-31T12:16:13;5.15;;;3.00;;
28547;SDS011;68292;49.600;8.746;2023-07-31T12:18:42;3.45;;;3.05;;
28547;SDS011;68292;49.600;8.746;2023-07-31T12:21:10;5.43;;;3.15;;
28547;SDS011;68292;49.600;8.746;2023-07-31T12:23:39;4.75;;;3.05;;
28547;SDS011;68292;49.600;8.746;2023-07-31T12:26:09;5.45;;;2.88;;
28547;SDS011;68292;49.600;8.746;2023-07-31T12:28:40;6.68;;;2.75;;
28547;SDS011;68292;49.600;8.746;2023-07-31T12:31:10;4.07;;;3.30;;
28547;SDS011;68292;49.600;8.746;2023-07-31T12:33:40;3.83;;;3.20;;
28547;SDS011;68292;49.600;8.746;2023-07-31T12:36:11;6.65;;;3.20;;
28547;SDS011;68292;49.600;8.746;2023-07-31T12:38:42;3.63;;;2.92;;
28547;SDS011;68292;49.600;8.746;2023-07-31T12:41:10;4.88;;;2.90;;
28547;SDS011;68292;49.600;8.746;2023-07-31T12:43:39;4.28;;;2.78;;
28547;SDS011;68292;49.600;8.746;2023-07-31T12:46:08;4.72;;;2.75;;
28547;SDS011;68292;49.600;8.746;2023-07-31T12:48:38;4.13;;;2.97;;
28547;SDS011;68292;49.600;8.746;2023-07-31T12:51:08;4.68;;;3.15;;
28547;SDS011;68292;49.600;8.746;2023-07-31T12:53:36;4.72;;;2.70;;
28547;SDS011;68292;49.600;8.746;2023-07-31T12:56:05;4.68;;;3.13;;
28547;SDS011;68292;49.600;8.746;2023-07-31T12:58:33;4.43;;;2.55;;
28547;SDS011;68292;49.600;8.746;2023-07-31T13:01:01;3.35;;;2.90;;
28547;SDS011;68292;49.600;8.746;2023-07-31T13:03:30;4.63;;;3.03;;
28547;SDS011;68292;49.600;8.746;2023-07-31T13:05:58;4.70;;;3.38;;
28547;SDS011;68292;49.600;8.746;2023-07-31T13:08:27;3.58;;;2.92;;
28547;SDS011;68292;49.600;8.746;2023-07-31T13:10:55;5.60;;;3.22;;
28547;SDS011;68292;49.600;8.746;2023-07-31T13:13:23;3.65;;;2.90;;
28547;SDS011;68292;49.600;8.746;2023-07-31T13:15:51;4.45;;;2.85;;
28547;SDS011;68292;49.600;8.746;2023-07-31T13:18:20;3.95;;;2.90;;
28547;SDS011;68292;49.600;8.746;2023-07-31T13:20:48;6.22;;;3.10;;
28547;SDS011;68292;49.600;8.746;2023-07-31T13:23:16;3.80;;;2.83;;
28547;SDS011;68292;49.600;8.746;2023-07-31T13:25:45;3.30;;;3.00;;
28547;SDS011;68292;49.600;8.746;2023-07-31T13:28:13;4.95;;;2.67;;
28547;SDS011;68292;49.600;8.746;2023-07-31T13:30:42;3.40;;;3.10;;
28547;SDS011;68292;49.600;8.746;2023-07-31T13:33:10;3.70;;;3.08;;
28547;SDS011;68292;49.600;8.746;2023-07-31T13:35:50;3.75;;;2.85;;
28547;SDS011;68292;49.600;8.746;2023-07-31T13:38:18;4.63;;;3.13;;
28547;SDS011;68292;49.600;8.746;2023-07-31T13:40:48;6.40;;;3.50;;
28547;SDS011;68292;49.600;8.746;2023-07-31T13:43:16;5.80;;;3.53;;
28547;SDS011;68292;49.600;8.746;2023-07-31T13:45:44;7.60;;;3.10;;
28547;SDS011;68292;49.600;8.746;2023-07-31T13:48:12;4.55;;;2.85;;
28547;SDS011;68292;49.600;8.746;2023-07-31T13:50:40;6.30;;;3.83;;
28547;SDS011;68292;49.600;8.746;2023-07-31T13:53:08;3.28;;;2.70;;
28547;SDS011;68292;49.600;8.746;2023-07-31T13:55:36;3.50;;;2.88;;
28547;SDS011;68292;49.600;8.746;2023-07-31T13:58:06;4.50;;;3.00;;
28547;SDS011;68292;49.600;8.746;2023-07-31T14:00:34;5.05;;;2.85;;
28547;SDS011;68292;49.600;8.746;2023-07-31T14:03:02;5.05;;;2.95;;
28547;SDS011;68292;49.600;8.746;2023-07-31T14:05:30;3.08;;;2.63;;
28547;SDS011;68292;49.600;8.746;2023-07-31T14:07:58;3.92;;;3.22;;
28547;SDS011;68292;49.600;8.746;2023-07-31T14:10:26;3.10;;;2.70;;
28547;SDS011;68292;49.600;8.746;2023-07-31T14:12:54;3.78;;;3.00;;
28547;SDS011;68292;49.600;8.746;2023-07-31T14:15:24;5.07;;;3.00;;
28547;SDS011;68292;49.600;8.746;2023-07-31T14:17:52;3.78;;;3.33;;
28547;SDS011;68292;49.600;8.746;2023-07-31T14:20:22;4.05;;;2.92;;
28547;SDS011;68292;49.600;8.746;2023-07-31T14:22:50;4.70;;;3.10;;
28547;SDS011;68292;49.600;8.746;2023-07-31T14:25:18;4.15;;;2.90;;
28547;SDS011;68292;49.600;8.746;2023-07-31T14:27:46;3.88;;;3.03;;
28547;SDS011;68292;49.600;8.746;2023-07-31T14:30:14;7.07;;;2.90;;
28547;SDS011;68292;49.600;8.746;2023-07-31T14:32:44;4.05;;;3.28;;
28547;SDS011;68292;49.600;8.746;2023-07-31T14:35:13;5.25;;;3.40;;
28547;SDS011;68292;49.600;8.746;2023-07-31T14:37:41;6.43;;;3.00;;
28547;SDS011;68292;49.600;8.746;2023-07-31T14:40:11;2.90;;;2.63;;
28547;SDS011;68292;49.600;8.746;2023-07-31T14:42:40;5.18;;;2.92;;
28547;SDS011;68292;49.600;8.746;2023-07-31T14:45:09;3.00;;;2.50;;
28547;SDS011;68292;49.600;8.746;2023-07-31T14:47:37;3.83;;;2.75;;
28547;SDS011;68292;49.600;8.746;2023-07-31T14:50:07;4.15;;;2.63;;
28547;SDS011;68292;49.600;8.746;2023-07-31T14:52:37;4.68;;;3.67;;
28547;SDS011;68292;49.600;8.746;2023-07-31T14:55:05;3.00;;;2.70;;
28547;SDS011;68292;49.600;8.746;2023-07-31T14:57:34;3.85;;;3.05;;
28547;SDS011;68292;49.600;8.746;2023-07-31T15:00:03;3.42;;;3.13;;